createdAt,value
2023-04-21T00:00:47.497Z,100626.09
2023-04-21T00:06:01.765Z,100624.25
2023-04-21T00:11:05.690Z,100625.46
2023-04-21T00:16:09.254Z,100621.35
2023-04-21T00:21:12.923Z,100617.73
2023-04-21T00:26:16.444Z,100613.80
2023-04-21T00:31:19.979Z,100612.91
2023-04-21T00:36:25.221Z,100609.67
2023-04-21T00:41:29.510Z,100609.69
2023-04-21T00:46:34.163Z,100607.14
2023-04-21T00:51:38.119Z,100603.73
2023-04-21T00:56:41.531Z,100605.90
2023-04-21T01:01:45.105Z,100606.11
2023-04-21T01:06:48.979Z,100604.64
2023-04-21T01:12:06.635Z,100606.76
2023-04-21T01:17:10.817Z,100608.61
2023-04-21T01:22:15.505Z,100600.79
2023-04-21T01:27:20.656Z,100593.69
2023-04-21T01:32:27.393Z,100592.27
2023-04-21T01:37:32.805Z,100594.82
2023-04-21T01:42:39.810Z,100592.77
2023-04-21T01:47:43.122Z,100595.05
2023-04-21T01:52:46.629Z,100593.11
2023-04-21T01:57:50.035Z,100590.94
2023-04-21T02:02:53.843Z,100587.78
2023-04-21T02:07:57.276Z,100580.51
2023-04-21T02:13:01.412Z,100581.27
2023-04-21T02:18:04.977Z,100579.31
2023-04-21T02:23:08.541Z,100577.60
2023-04-21T02:28:12.156Z,100574.95
2023-04-21T02:33:15.636Z,100570.38
2023-04-21T02:38:19.291Z,100573.23
2023-04-21T02:43:22.702Z,100573.60
2023-04-21T02:48:27.138Z,100577.42
2023-04-21T02:53:30.655Z,100577.13
2023-04-21T02:58:33.960Z,100574.59
2023-04-21T03:03:37.606Z,100570.17
2023-04-21T03:08:41.107Z,100566.75
2023-04-21T03:13:44.625Z,100569.66
2023-04-21T03:18:48.128Z,100567.27
2023-04-21T03:23:53.713Z,100562.72
2023-04-21T03:28:57.009Z,100557.89
2023-04-21T03:34:00.620Z,100558.00
2023-04-21T03:39:18.763Z,100560.69
2023-04-21T03:44:26.442Z,100561.63
2023-04-21T03:49:29.813Z,100562.55
2023-04-21T03:54:33.319Z,100557.36
2023-04-21T03:59:36.840Z,100561.88
2023-04-21T04:04:40.601Z,100569.55
2023-04-21T04:09:44.908Z,100569.19
2023-04-21T04:14:48.256Z,100571.38
2023-04-21T04:19:51.615Z,100572.59
2023-04-21T04:24:55.547Z,100574.10
2023-04-21T04:29:59.573Z,100572.21
2023-04-21T04:35:03.117Z,100575.36
2023-04-21T04:40:10.470Z,100575.69
2023-04-21T04:45:14.205Z,100570.69
2023-04-21T04:50:17.795Z,100572.23
2023-04-21T04:55:22.412Z,100568.88
2023-04-21T05:00:25.984Z,100568.60
2023-04-21T05:05:29.398Z,100575.54
2023-04-21T05:10:32.910Z,100577.84
2023-04-21T05:15:36.335Z,100587.22
2023-04-21T05:20:43.064Z,100581.10
2023-04-21T05:25:46.764Z,100579.27
2023-04-21T05:30:50.301Z,100583.20
2023-04-21T05:35:54.149Z,100582.39
2023-04-21T05:40:57.790Z,100583.33
2023-04-21T05:46:02.150Z,100586.91
2023-04-21T05:51:10.768Z,100591.11
2023-04-21T05:56:14.924Z,100588.31
2023-04-21T06:01:18.115Z,100582.54
2023-04-21T06:06:21.616Z,100585.19
2023-04-21T06:11:25.136Z,100585.06
2023-04-21T06:16:28.618Z,100577.23
2023-04-21T06:21:33.083Z,100575.42
2023-04-21T06:26:36.293Z,100572.96
2023-04-21T06:31:39.777Z,100571.90
2023-04-21T06:36:43.536Z,100571.70
2023-04-21T06:41:46.942Z,100575.80
2023-04-21T06:46:50.682Z,100578.79
2023-04-21T06:51:54.380Z,100580.09
2023-04-21T06:56:57.806Z,100575.17
2023-04-21T07:02:01.556Z,100579.48
2023-04-21T07:07:05.136Z,100580.88
2023-04-21T07:12:08.761Z,100580.58
2023-04-21T07:17:12.206Z,100580.56
2023-04-21T07:22:15.900Z,100581.91
2023-04-21T07:27:19.712Z,100577.91
2023-04-21T07:32:23.196Z,100580.27
2023-04-21T07:37:27.461Z,100580.16
2023-04-21T07:42:30.870Z,100575.08
2023-04-21T07:47:34.907Z,100574.42
2023-04-21T07:52:38.333Z,100567.91
2023-04-21T07:57:42.135Z,100572.02
2023-04-21T08:02:45.778Z,100571.28
2023-04-21T08:07:49.375Z,100562.94
2023-04-21T08:12:52.783Z,100555.52
2023-04-21T08:17:56.342Z,100552.01
2023-04-21T08:23:00.051Z,100548.16
2023-04-21T08:28:03.569Z,100552.89
2023-04-21T08:33:08.887Z,100549.08
2023-04-21T08:38:12.612Z,100544.36
2023-04-21T08:43:16.329Z,100540.80
2023-04-21T08:48:22.315Z,100534.69
2023-04-21T08:53:26.127Z,100538.02
2023-04-21T08:58:29.951Z,100535.96
2023-04-21T09:03:33.621Z,100535.98
2023-04-21T09:08:43.126Z,100529.74
2023-04-21T09:13:46.642Z,100521.39
2023-04-21T09:18:51.838Z,100517.67
2023-04-21T09:23:57.977Z,100511.64
2023-04-21T09:29:02.210Z,100507.77
2023-04-21T09:34:21.461Z,100510.80
2023-04-21T09:39:40.546Z,100506.45
2023-04-21T09:44:56.298Z,100501.89
2023-04-21T09:50:07.046Z,100499.36
2023-04-21T09:55:13.965Z,100496.63
2023-04-21T10:00:19.038Z,100494.20
2023-04-21T10:05:23.073Z,100485.42
2023-04-21T10:10:31.988Z,100481.38
2023-04-21T10:15:39.514Z,100475.56
2023-04-21T10:20:53.855Z,100468.69
2023-04-21T10:26:17.436Z,100467.77
2023-04-21T10:31:45.088Z,100459.91
2023-04-21T10:36:54.782Z,100460.48
2023-04-21T10:42:25.437Z,100457.17
2023-04-21T10:47:46.585Z,100457.45
2023-04-21T10:53:13.282Z,100446.14
2023-04-21T10:58:17.057Z,100448.39
2023-04-21T11:03:20.662Z,100450.10
2023-04-21T11:08:25.206Z,100443.56
2023-04-21T11:13:35.158Z,100442.64
2023-04-21T11:18:44.203Z,100438.29
2023-04-21T11:23:55.709Z,100432.80
2023-04-21T11:29:08.543Z,100422.17
2023-04-21T11:34:12.570Z,100423.71
2023-04-21T11:39:20.184Z,100422.85
2023-04-21T11:44:42.852Z,100406.13
2023-04-21T11:49:47.392Z,100406.91
2023-04-21T11:55:05.864Z,100401.32
2023-04-21T12:00:17.467Z,100392.33
2023-04-21T12:05:20.939Z,100387.59
2023-04-21T12:10:24.798Z,100377.70
2023-04-21T12:15:30.640Z,100368.30
2023-04-21T12:20:34.904Z,100363.30
2023-04-21T12:25:38.516Z,100355.27
2023-04-21T12:30:42.629Z,100357.53
2023-04-21T12:35:46.554Z,100350.58
2023-04-21T12:40:49.892Z,100347.86
2023-04-21T12:53:05.122Z,100334.81
2023-04-21T12:58:08.480Z,100337.08
2023-04-21T13:03:12.946Z,100330.52
2023-04-21T13:08:16.996Z,100326.14
2023-04-21T13:13:21.022Z,100321.82
2023-04-21T13:18:24.444Z,100319.61
2023-04-21T13:23:27.959Z,100308.54
2023-04-21T13:28:31.362Z,100310.80
2023-04-21T13:33:35.392Z,100306.98
2023-04-21T13:38:40.686Z,100300.36
2023-04-21T13:43:44.274Z,100298.10
2023-04-21T13:48:47.785Z,100293.11
2023-04-21T13:53:51.410Z,100286.27
2023-04-21T13:58:56.150Z,100274.00
2023-04-21T14:03:59.843Z,100275.27
2023-04-21T14:09:05.086Z,100273.92
2023-04-21T14:14:10.111Z,100274.58
2023-04-21T14:19:15.841Z,100274.77
2023-04-21T14:24:19.360Z,100280.38
2023-04-21T14:29:23.837Z,100278.36
2023-04-21T14:34:27.274Z,100269.88
2023-04-21T14:39:30.788Z,100267.83
2023-04-21T14:44:35.916Z,100263.33
2023-04-21T14:49:39.701Z,100258.05
2023-04-21T14:54:43.276Z,100251.77
2023-04-21T14:59:47.140Z,100243.77
2023-04-21T15:04:50.945Z,100243.96
2023-04-21T15:09:55.694Z,100231.86
2023-04-21T15:14:59.559Z,100225.33
2023-04-21T15:20:03.455Z,100217.50
2023-04-21T15:25:07.386Z,100217.95
2023-04-21T15:30:12.298Z,100212.55
2023-04-21T15:35:15.656Z,100202.34
2023-04-21T15:40:19.368Z,100194.30
2023-04-21T15:45:22.988Z,100192.41
2023-04-21T15:50:26.737Z,100193.84
2023-04-21T15:55:30.831Z,100200.13
2023-04-21T16:00:34.351Z,100207.99
2023-04-21T16:05:38.109Z,100205.67
2023-04-21T16:10:41.917Z,100203.30
2023-04-21T16:15:46.088Z,100205.02
2023-04-21T16:20:49.738Z,100197.99
2023-04-21T16:25:53.475Z,100192.14
2023-04-21T16:30:57.073Z,100190.55
2023-04-21T16:36:00.729Z,100189.36
2023-04-21T16:41:04.308Z,100186.50
2023-04-21T16:46:07.675Z,100180.14
2023-04-21T16:51:11.138Z,100181.89
2023-04-21T16:56:15.175Z,100177.25
2023-04-21T17:01:18.627Z,100163.48
2023-04-21T17:06:22.295Z,100159.36
2023-04-21T17:11:30.217Z,100159.39
2023-04-21T17:16:33.980Z,100163.40
2023-04-21T17:21:37.349Z,100162.38
2023-04-21T17:26:41.081Z,100156.45
2023-04-21T17:31:44.616Z,100157.09
2023-04-21T17:36:48.405Z,100160.71
2023-04-21T17:41:51.723Z,100161.75
2023-04-21T17:46:55.232Z,100159.58
2023-04-21T17:51:58.746Z,100155.09
2023-04-21T17:57:02.673Z,100155.17
2023-04-21T18:02:06.254Z,100156.66
2023-04-21T18:07:10.116Z,100158.07
2023-04-21T18:12:13.632Z,100161.79
2023-04-21T18:17:17.756Z,100164.04
2023-04-21T18:22:21.492Z,100162.85
2023-04-21T18:27:25.503Z,100163.09
2023-04-21T18:32:28.932Z,100165.97
2023-04-21T18:37:32.350Z,100162.67
2023-04-21T18:42:35.849Z,100164.80
2023-04-21T18:47:39.523Z,100161.27
2023-04-21T18:52:43.602Z,100154.55
2023-04-21T18:57:47.013Z,100154.63
2023-04-21T19:02:51.620Z,100154.30
2023-04-21T19:07:55.169Z,100151.75
2023-04-21T19:12:58.583Z,100154.14
2023-04-21T19:18:02.508Z,100148.11
2023-04-21T19:23:06.134Z,100150.23
2023-04-21T19:28:10.269Z,100149.89
2023-04-21T19:33:14.013Z,100147.64
2023-04-21T19:38:17.594Z,100144.39
2023-04-21T19:43:21.873Z,100144.45
2023-04-21T19:48:26.179Z,100141.09
2023-04-21T19:53:29.374Z,100141.98
2023-04-21T20:03:42.816Z,100131.67
2023-04-21T20:08:49.036Z,100133.59
2023-04-21T20:13:52.369Z,100128.18
2023-04-21T20:18:58.623Z,100129.95
2023-04-21T20:24:02.955Z,100129.73
2023-04-21T20:29:06.164Z,100131.26
2023-04-21T20:34:09.574Z,100130.16
2023-04-21T20:39:14.564Z,100132.29
2023-04-21T20:44:21.017Z,100135.77
2023-04-21T20:49:24.605Z,100139.83
2023-04-21T20:54:28.393Z,100137.41
2023-04-21T20:59:31.766Z,100133.39
2023-04-21T21:04:35.445Z,100131.77
2023-04-21T21:09:39.093Z,100131.82
2023-04-21T21:14:42.923Z,100134.69
2023-04-21T21:19:46.458Z,100133.73
2023-04-21T21:24:50.771Z,100136.21
2023-04-21T21:29:54.287Z,100136.29
2023-04-21T21:34:57.699Z,100138.06
2023-04-21T21:40:01.230Z,100131.33
2023-04-21T21:45:06.676Z,100129.62
2023-04-21T21:50:11.690Z,100128.79
2023-04-21T21:55:15.247Z,100124.44
2023-04-21T22:00:19.073Z,100120.09
2023-04-21T22:05:22.483Z,100118.89
2023-04-21T22:10:26.202Z,100122.20
2023-04-21T22:15:29.615Z,100122.97
2023-04-21T22:20:33.132Z,100118.69
2023-04-21T22:25:37.156Z,100120.54
2023-04-21T22:30:40.678Z,100117.51
2023-04-21T22:35:44.497Z,100114.90
2023-04-21T22:40:47.909Z,100107.91
2023-04-21T22:45:51.429Z,100109.65
2023-04-21T22:50:55.868Z,100109.96
2023-04-21T22:55:59.687Z,100101.69
2023-04-21T23:01:03.312Z,100107.27
2023-04-21T23:06:07.231Z,100099.42
2023-04-21T23:11:10.743Z,100093.70
2023-04-21T23:16:14.268Z,100091.78
2023-04-21T23:21:17.881Z,100092.85
2023-04-21T23:26:22.009Z,100093.30
2023-04-21T23:31:26.369Z,100090.09
2023-04-21T23:36:29.650Z,100087.14
2023-04-21T23:41:33.165Z,100084.55
2023-04-21T23:46:37.261Z,100080.85
2023-04-21T23:51:41.321Z,100078.05
2023-04-21T23:56:44.842Z,100075.71
